Time;durP1;ratioP1;P1;durP2;ratioP2;P2;SDS_P1;SDS_P2;PMS_P1;PMS_P2;Temp;Humidity;BMP_temperature;BMP_pressure;BME280_temperature;BME280_humidity;BME280_pressure;Samples;Min_cycle;Max_cycle;Signal;HPM_P1;HPM_P2
2023/04/20 00:00:08;;;;;;;12.13;11.03;;;;;;;12.90;100.00;99067.88;5075562;28;20196;-83
2023/04/20 00:02:35;;;;;;;12.73;11.53;;;;;;;12.82;100.00;99054.84;5075467;28;20211;-83
2023/04/20 00:05:02;;;;;;;15.27;12.03;;;;;;;12.83;100.00;99061.78;5073300;28;20252;-82
2023/04/20 00:07:29;;;;;;;12.20;11.20;;;;;;;12.82;100.00;99064.69;5075203;28;20197;-81
2023/04/20 00:09:55;;;;;;;13.67;12.47;;;;;;;12.82;100.00;99060.16;5075141;28;20196;-81
2023/04/20 00:12:22;;;;;;;13.67;12.40;;;;;;;12.78;100.00;99053.63;5074876;28;20640;-80
2023/04/20 00:14:50;;;;;;;13.70;12.50;;;;;;;12.75;100.00;99048.78;5074765;28;20282;-82
2023/04/20 00:17:17;;;;;;;13.03;11.90;;;;;;;12.74;100.00;99055.13;5074915;28;20766;-83
2023/04/20 00:19:44;;;;;;;16.37;13.23;;;;;;;12.69;100.00;99049.63;5074905;28;20200;-84
2023/04/20 00:22:10;;;;;;;14.00;12.67;;;;;;;12.58;100.00;99047.69;5074701;28;20227;-83
2023/04/20 00:24:37;;;;;;;13.53;12.27;;;;;;;12.52;100.00;99053.91;5073866;28;20206;-82
2023/04/20 00:27:04;;;;;;;13.70;12.40;;;;;;;12.42;100.00;99050.91;5074679;28;20191;-83
2023/04/20 00:29:31;;;;;;;14.37;13.17;;;;;;;12.45;100.00;99049.69;5072558;28;20198;-83
2023/04/20 00:31:59;;;;;;;14.60;13.30;;;;;;;12.36;100.00;99046.47;5074275;28;20200;-82
2023/04/20 00:34:25;;;;;;;14.30;13.00;;;;;;;12.36;100.00;99054.47;5074184;28;20199;-83
2023/04/20 00:36:52;;;;;;;14.10;12.13;;;;;;;12.31;100.00;99043.66;5074493;28;20196;-83
2023/04/20 00:39:19;;;;;;;13.73;12.50;;;;;;;12.30;100.00;99043.88;5058425;28;20222;-83
2023/04/20 00:41:45;;;;;;;13.57;12.33;;;;;;;12.20;100.00;99039.03;5053915;28;20219;-83
2023/04/20 00:44:13;;;;;;;12.77;11.67;;;;;;;12.19;100.00;99045.38;5053864;28;20628;-82
2023/04/20 00:46:39;;;;;;;11.63;10.60;;;;;;;12.13;100.00;99054.22;5054454;28;20648;-82
2023/04/20 00:49:08;;;;;;;10.80;9.90;;;;;;;12.04;100.00;99047.53;5053936;28;20692;-82
2023/04/20 00:51:35;;;;;;;11.37;10.47;;;;;;;11.94;100.00;99044.56;5054193;28;20196;-83
2023/04/20 00:54:02;;;;;;;11.13;10.13;;;;;;;12.00;100.00;99046.34;5056086;28;20611;-85
2023/04/20 00:56:29;;;;;;;10.30;9.53;;;;;;;12.05;100.00;99051.81;5074074;28;20198;-83
2023/04/20 00:58:56;;;;;;;10.40;9.67;;;;;;;11.99;100.00;99036.72;5073778;28;20219;-81
2023/04/20 01:01:22;;;;;;;10.17;9.37;;;;;;;12.03;100.00;99047.75;5074048;28;20304;-82
2023/04/20 01:03:49;;;;;;;10.33;9.33;;;;;;;12.04;100.00;99050.19;5072897;28;20199;-82
2023/04/20 01:06:17;;;;;;;9.47;8.87;;;;;;;12.11;100.00;99045.66;5074051;28;20191;-81
2023/04/20 01:08:48;;;;;;;10.57;9.57;;;;;;;12.10;100.00;99046.69;5074092;28;20198;-81
2023/04/20 01:11:15;;;;;;;9.20;8.50;;;;;;;12.07;100.00;99051.63;5073496;28;20203;-81
2023/04/20 01:13:43;;;;;;;9.90;9.10;;;;;;;11.98;100.00;99055.56;5073813;28;20547;-82
2023/04/20 01:16:10;;;;;;;9.00;8.30;;;;;;;11.93;100.00;99048.25;5073629;28;20663;-82
2023/04/20 01:18:48;;;;;;;9.67;8.80;;;;;;;11.74;100.00;99045.69;5073413;28;20224;-81
2023/04/20 01:21:18;;;;;;;9.20;8.47;;;;;;;11.60;100.00;99049.44;5070584;28;20267;-81
2023/04/20 01:23:46;;;;;;;10.33;9.33;;;;;;;11.54;100.00;99048.44;5072885;28;20319;-81
2023/04/20 01:26:15;;;;;;;10.13;9.03;;;;;;;11.48;100.00;99037.84;5073672;28;20190;-81
2023/04/20 01:28:42;;;;;;;9.23;8.53;;;;;;;11.44;100.00;99032.16;5073612;28;20223;-81
2023/04/20 01:31:10;;;;;;;10.43;9.63;;;;;;;11.56;100.00;99035.75;5073263;28;20198;-80
2023/04/20 01:33:37;;;;;;;10.13;9.23;;;;;;;11.60;100.00;99044.94;5072206;28;20251;-82
2023/04/20 01:36:05;;;;;;;10.07;9.27;;;;;;;11.55;100.00;99033.31;5072985;28;20618;-82
2023/04/20 01:38:33;;;;;;;9.57;8.70;;;;;;;11.56;100.00;99040.25;5072657;28;20230;-83
2023/04/20 01:41:03;;;;;;;10.10;9.23;;;;;;;11.55;100.00;99039.44;5070666;28;20736;-79
2023/04/20 01:43:30;;;;;;;9.47;8.80;;;;;;;11.61;100.00;99040.47;5052960;28;20190;-82
2023/04/20 01:45:57;;;;;;;9.93;9.23;;;;;;;11.71;100.00;99036.31;5052822;28;20672;-82
2023/04/20 01:48:24;;;;;;;9.67;8.77;;;;;;;11.74;100.00;99038.53;5052774;28;20199;-82
2023/04/20 01:50:51;;;;;;;9.57;8.97;;;;;;;11.81;99.15;99042.00;5053062;28;20261;-83
2023/04/20 01:53:18;;;;;;;9.57;8.77;;;;;;;11.89;98.62;99038.25;5053095;28;20194;-84
2023/04/20 01:55:45;;;;;;;9.10;8.53;;;;;;;11.83;98.22;99031.09;5052526;28;20637;-85
2023/04/20 01:58:13;;;;;;;10.70;9.73;;;;;;;11.69;97.64;99017.09;5053036;28;20195;-84
2023/04/20 02:00:39;;;;;;;9.73;9.03;;;;;;;11.83;97.24;99037.25;5052674;28;20668;-84
2023/04/20 02:03:06;;;;;;;9.87;9.17;;;;;;;11.86;96.66;99041.31;5055453;28;20218;-83
2023/04/20 02:05:33;;;;;;;9.63;9.03;;;;;;;11.77;96.19;99030.16;5072282;28;20209;-84
2023/04/20 02:07:59;;;;;;;11.17;10.17;;;;;;;11.76;96.76;99025.81;5070259;28;20571;-84
2023/04/20 02:10:26;;;;;;;9.90;9.20;;;;;;;11.91;97.01;99039.66;5072249;28;20193;-85
2023/04/20 02:12:53;;;;;;;9.80;8.90;;;;;;;11.89;96.66;99036.41;5072649;28;20248;-86
2023/04/20 02:15:21;;;;;;;10.10;9.40;;;;;;;11.77;95.70;99027.47;5071930;28;20669;-86
2023/04/20 02:17:50;;;;;;;11.07;10.27;;;;;;;11.73;96.40;99039.59;5072444;28;20256;-84
2023/04/20 02:20:18;;;;;;;10.33;9.53;;;;;;;11.75;96.74;99034.84;5072516;28;20217;-85
2023/04/20 02:22:45;;;;;;;10.63;9.60;;;;;;;11.69;96.30;99040.22;5072515;28;20313;-82
2023/04/20 02:25:12;;;;;;;10.63;9.77;;;;;;;11.81;97.48;99038.50;5072449;28;20190;-84
2023/04/20 02:27:39;;;;;;;10.60;9.57;;;;;;;11.90;97.12;99042.53;5072559;28;20195;-83
2023/04/20 02:30:07;;;;;;;9.77;9.07;;;;;;;11.87;95.38;99037.63;5071876;28;20194;-81
2023/04/20 02:32:35;;;;;;;10.17;9.30;;;;;;;11.88;93.81;99044.59;5072213;28;20197;-81
2023/04/20 02:35:02;;;;;;;11.07;9.83;;;;;;;11.80;94.48;99043.00;5053878;28;20269;-81
2023/04/20 02:37:29;;;;;;;10.33;9.40;;;;;;;11.77;94.03;99046.09;5052312;28;20241;-81
2023/04/20 02:39:56;;;;;;;11.20;10.30;;;;;;;11.80;94.59;99043.00;5052188;28;20249;-81
2023/04/20 02:42:23;;;;;;;11.17;10.07;;;;;;;11.82;94.43;99040.13;5051964;28;20653;-81
2023/04/20 02:44:51;;;;;;;10.13;9.13;;;;;;;11.64;94.04;99042.69;5052090;28;20249;-82
2023/04/20 02:47:18;;;;;;;10.67;9.87;;;;;;;11.63;92.26;99041.09;5052273;28;20204;-81
2023/04/20 02:49:46;;;;;;;10.43;9.37;;;;;;;11.55;92.28;99047.41;5054910;28;20217;-82
2023/04/20 02:52:13;;;;;;;11.17;8.90;;;;;;;11.56;92.24;99051.69;5051990;28;20255;-81
2023/04/20 02:54:39;;;;;;;9.40;8.70;;;;;;;11.57;91.79;99050.69;5051696;28;20675;-82
2023/04/20 02:57:06;;;;;;;10.37;9.40;;;;;;;11.59;91.58;99040.63;5053759;28;20193;-84
2023/04/20 02:59:33;;;;;;;10.03;9.33;;;;;;;11.52;91.83;99042.53;5071671;28;20199;-82
2023/04/20 03:01:59;;;;;;;12.07;11.07;;;;;;;11.53;91.77;99049.47;5071512;28;20725;-84
2023/04/20 03:04:26;;;;;;;11.80;10.60;;;;;;;11.48;91.45;99038.69;5071619;28;20248;-83
2023/04/20 03:06:54;;;;;;;22.47;18.23;;;;;;;11.49;92.92;99045.63;5071555;28;20199;-83
2023/04/20 03:09:21;;;;;;;16.13;12.33;;;;;;;11.50;92.22;99049.91;5071809;28;20259;-83
2023/04/20 03:11:48;;;;;;;14.33;12.03;;;;;;;11.40;92.53;99038.09;5073330;28;20251;-83
2023/04/20 03:14:15;;;;;;;15.53;13.27;;;;;;;11.48;92.14;99049.31;5071895;28;20208;-82
2023/04/20 03:16:42;;;;;;;13.13;11.87;;;;;;;11.41;92.90;99040.53;5072247;28;20206;-81
2023/04/20 03:19:08;;;;;;;13.07;11.73;;;;;;;11.34;92.70;99038.91;5071853;28;20193;-78
2023/04/20 03:21:35;;;;;;;11.93;11.03;;;;;;;11.38;92.75;99042.78;5071508;28;20221;-78
2023/04/20 03:24:05;;;;;;;11.50;10.00;;;;;;;11.28;93.26;99037.94;5069141;28;20238;-75
2023/04/20 03:26:31;;;;;;;11.87;10.63;;;;;;;11.25;91.93;99045.50;5071545;28;20221;-72
2023/04/20 03:28:58;;;;;;;11.57;10.43;;;;;;;11.27;91.42;99044.28;5075045;28;20224;-73
2023/04/20 03:31:25;;;;;;;12.77;11.53;;;;;;;11.13;92.42;99031.25;5075065;28;20198;-73
2023/04/20 03:33:51;;;;;;;12.47;11.23;;;;;;;11.11;92.24;99033.31;5075585;28;20193;-73
2023/04/20 03:36:18;;;;;;;13.30;11.43;;;;;;;11.09;91.97;99033.53;5075402;28;20255;-78
2023/04/20 03:38:45;;;;;;;12.10;10.97;;;;;;;11.01;92.62;99020.47;5075840;28;20226;-78
2023/04/20 03:41:13;;;;;;;13.60;12.20;;;;;;;11.02;92.72;99038.03;5073220;28;20636;-78
2023/04/20 03:43:41;;;;;;;12.80;11.47;;;;;;;11.02;92.50;99036.22;5070179;28;20208;-79
2023/04/20 03:46:07;;;;;;;12.77;11.33;;;;;;;11.02;92.31;99034.59;5071024;28;20658;-78
2023/04/20 03:48:34;;;;;;;15.47;12.07;;;;;;;11.06;92.46;99039.25;5077124;28;20659;-76
2023/04/20 03:51:01;;;;;;;11.30;10.33;;;;;;;11.09;91.48;99033.53;5071097;28;20208;-74
2023/04/20 03:53:28;;;;;;;11.83;10.53;;;;;;;11.18;91.44;99042.88;5079796;28;20279;-74
2023/04/20 03:55:55;;;;;;;11.67;10.70;;;;;;;11.35;91.13;99049.34;5073492;28;20738;-75
2023/04/20 03:58:23;;;;;;;10.63;9.63;;;;;;;11.42;90.53;99050.16;5074764;28;20194;-78
2023/04/20 04:00:50;;;;;;;12.23;10.43;;;;;;;11.52;90.57;99050.53;5074633;28;20587;-78
2023/04/20 04:03:17;;;;;;;11.07;10.17;;;;;;;11.55;90.37;99052.72;5074264;28;20218;-79
2023/04/20 04:05:43;;;;;;;12.00;10.73;;;;;;;11.59;90.31;99050.47;5074555;28;20556;-78
2023/04/20 04:08:10;;;;;;;10.67;9.77;;;;;;;11.59;89.61;99037.97;5072725;28;20259;-77
2023/04/20 04:10:37;;;;;;;9.63;8.97;;;;;;;11.76;88.96;99063.06;5075013;28;20198;-73
2023/04/20 04:13:04;;;;;;;9.67;8.57;;;;;;;11.82;88.85;99066.72;5074140;28;20194;-74
2023/04/20 04:15:32;;;;;;;10.13;9.30;;;;;;;11.89;88.71;99057.69;5073026;28;20668;-74
2023/04/20 04:17:58;;;;;;;8.67;8.03;;;;;;;12.14;87.40;99071.03;5074629;28;20193;-74
2023/04/20 04:20:25;;;;;;;14.17;8.50;;;;;;;12.32;86.42;99066.56;5073339;28;20193;-74
2023/04/20 04:22:52;;;;;;;8.90;7.97;;;;;;;12.73;85.33;99074.81;5074349;28;20275;-76
2023/04/20 04:25:19;;;;;;;8.20;7.70;;;;;;;13.27;82.47;99082.88;5074218;28;20194;-73
2023/04/20 04:27:45;;;;;;;7.87;7.07;;;;;;;13.79;80.66;99087.56;5074426;28;20198;-74
2023/04/20 04:30:13;;;;;;;8.43;7.70;;;;;;;14.35;77.85;99085.31;5074145;28;20221;-74
2023/04/20 04:32:43;;;;;;;8.97;8.00;;;;;;;14.81;75.85;99090.69;5074250;28;20810;-78
2023/04/20 04:35:10;;;;;;;7.73;7.13;;;;;;;15.29;73.81;99093.91;5074312;28;20196;-77
2023/04/20 04:37:37;;;;;;;9.63;6.93;;;;;;;15.85;71.85;99104.69;5053751;28;20227;-74
2023/04/20 04:40:06;;;;;;;11.67;7.27;;;;;;;16.14;70.69;99097.47;5054272;28;20197;-75
2023/04/20 04:42:33;;;;;;;12.53;9.40;;;;;;;16.50;69.91;99101.59;5053978;28;20220;-77
2023/04/20 04:45:00;;;;;;;8.53;7.70;;;;;;;16.59;67.80;99114.34;5053967;28;20228;-74
2023/04/20 04:47:29;;;;;;;8.33;7.57;;;;;;;16.32;68.10;99099.09;5053934;28;20246;-76
2023/04/20 04:49:59;;;;;;;7.77;6.60;;;;;;;15.74;69.65;99097.53;5063843;28;20287;-76
2023/04/20 04:52:27;;;;;;;9.27;7.43;;;;;;;15.24;71.98;99093.78;5073653;28;20196;-77
2023/04/20 04:54:53;;;;;;;7.97;7.37;;;;;;;15.01;73.08;99085.81;5073592;28;20256;-77
2023/04/20 04:57:20;;;;;;;10.27;7.80;;;;;;;14.63;74.05;99081.97;5087373;28;20192;-78
2023/04/20 04:59:47;;;;;;;9.63;8.67;;;;;;;14.23;76.02;99081.81;5072940;28;20196;-76
2023/04/20 05:02:14;;;;;;;9.17;8.37;;;;;;;14.13;76.71;99076.16;5073574;28;20231;-76
2023/04/20 05:04:41;;;;;;;9.53;8.63;;;;;;;14.08;77.60;99076.03;5071788;28;20191;-76
2023/04/20 05:07:10;;;;;;;10.60;9.50;;;;;;;13.91;77.80;99077.72;5073143;28;20250;-75
2023/04/20 05:09:36;;;;;;;10.20;9.17;;;;;;;14.04;78.25;99085.53;5073192;28;20191;-74
2023/04/20 05:12:03;;;;;;;10.00;8.50;;;;;;;14.07;76.84;99071.75;5073585;28;20257;-73
2023/04/20 05:14:31;;;;;;;13.13;9.20;;;;;;;14.07;76.62;99077.09;5073606;28;20195;-73
2023/04/20 05:16:58;;;;;;;16.03;8.90;;;;;;;14.22;76.99;99080.16;5073230;28;20253;-73
2023/04/20 05:19:24;;;;;;;10.43;8.43;;;;;;;14.47;76.38;99094.16;5073427;28;20237;-68
2023/04/20 05:21:51;;;;;;;13.47;6.03;;;;;;;14.76;81.00;99071.88;5073032;28;20249;-70
2023/04/20 05:24:19;;;;;;;8.77;8.07;;;;;;;15.34;77.77;99090.50;5073122;28;20312;-78
2023/04/20 05:26:46;;;;;;;10.77;7.80;;;;;;;15.53;77.56;99092.81;5073110;28;20192;-81
2023/04/20 05:29:14;;;;;;;8.90;8.07;;;;;;;15.51;72.50;99102.94;5073077;28;20264;-80
2023/04/20 05:31:41;;;;;;;8.00;7.00;;;;;;;15.55;75.58;99092.56;5073148;28;20250;-81
2023/04/20 05:34:08;;;;;;;8.03;7.30;;;;;;;15.81;79.22;99087.47;5070318;28;20245;-76
2023/04/20 05:36:34;;;;;;;11.33;8.63;;;;;;;15.96;71.79;99110.25;5071768;28;20685;-77
2023/04/20 05:39:01;;;;;;;17.70;7.87;;;;;;;15.82;70.80;99105.16;5073200;28;20224;-69
2023/04/20 05:41:29;;;;;;;9.40;7.17;;;;;;;15.80;70.31;99103.78;5056919;28;20250;-69
2023/04/20 05:43:56;;;;;;;8.77;6.87;;;;;;;16.20;74.13;99104.53;5069313;28;20301;-67
2023/04/20 05:46:23;;;;;;;11.87;6.47;;;;;;;16.77;71.78;99103.38;5071584;28;20265;-69
2023/04/20 05:48:50;;;;;;;7.47;6.63;;;;;;;16.88;68.12;99109.69;5067012;28;20670;-69
2023/04/20 05:51:16;;;;;;;7.07;6.10;;;;;;;17.00;66.50;99118.47;5052909;28;20193;-68
2023/04/20 05:53:43;;;;;;;7.40;6.63;;;;;;;17.35;66.47;99110.94;5052470;28;20666;-68
2023/04/20 05:56:10;;;;;;;6.63;6.20;;;;;;;17.36;62.98;99112.53;5052792;28;20201;-72
2023/04/20 05:58:38;;;;;;;9.60;6.70;;;;;;;17.42;64.06;99108.88;5052677;28;20231;-73
2023/04/20 06:01:06;;;;;;;6.77;6.23;;;;;;;17.47;63.23;99109.75;5052028;28;20200;-72
2023/04/20 06:03:32;;;;;;;7.70;7.03;;;;;;;17.41;63.27;99110.78;5057842;28;20596;-73
2023/04/20 06:05:59;;;;;;;7.63;6.40;;;;;;;17.69;61.92;99118.66;5072138;28;20188;-72
2023/04/20 06:08:26;;;;;;;6.63;6.13;;;;;;;18.32;61.51;99129.53;5071690;28;20275;-72
2023/04/20 06:10:54;;;;;;;7.03;6.10;;;;;;;18.80;58.65;99132.16;5069555;28;20192;-72
2023/04/20 06:13:21;;;;;;;8.83;6.53;;;;;;;18.68;59.31;99126.13;5071766;28;20372;-75
2023/04/20 06:15:51;;;;;;;8.03;5.93;;;;;;;18.92;60.05;99126.56;5065150;28;20632;-70
2023/04/20 06:18:18;;;;;;;7.70;7.10;;;;;;;18.23;58.32;99120.31;5070095;28;20192;-70
2023/04/20 06:20:44;;;;;;;6.60;6.00;;;;;;;18.39;58.04;99134.72;5068343;28;20189;-74
2023/04/20 06:23:11;;;;;;;8.90;6.80;;;;;;;18.36;58.82;99129.84;5071418;28;20285;-69
2023/04/20 06:25:39;;;;;;;7.07;6.43;;;;;;;18.35;58.82;99128.25;5071327;28;20198;-72
2023/04/20 06:28:05;;;;;;;7.07;6.20;;;;;;;18.79;57.62;99132.41;5071498;28;20656;-71
2023/04/20 06:30:32;;;;;;;7.43;5.60;;;;;;;19.12;57.53;99124.03;5071514;28;20207;-74
2023/04/20 06:33:00;;;;;;;6.00;5.50;;;;;;;19.20;56.93;99123.53;5070568;28;20225;-72
2023/04/20 06:35:27;;;;;;;6.57;6.07;;;;;;;19.68;57.06;99117.84;5071230;28;20192;-73
2023/04/20 06:37:56;;;;;;;12.30;6.07;;;;;;;20.36;55.71;99122.94;5071291;28;20226;-71
2023/04/20 06:40:23;;;;;;;6.60;5.53;;;;;;;21.03;51.64;99136.22;5068385;28;20194;-74
2023/04/20 06:42:49;;;;;;;8.00;5.13;;;;;;;21.30;53.65;99132.09;5063799;28;20230;-73
2023/04/20 06:45:17;;;;;;;7.07;5.77;;;;;;;20.81;49.92;99136.47;5067684;28;20192;-73
2023/04/20 06:47:43;;;;;;;6.17;5.77;;;;;;;20.44;50.47;99128.63;5071098;28;20230;-73
2023/04/20 06:50:12;;;;;;;7.03;6.10;;;;;;;20.16;51.08;99126.41;5069859;28;20219;-73
2023/04/20 06:52:39;;;;;;;45.07;8.43;;;;;;;20.13;51.25;99126.13;5070680;28;20221;-74
2023/04/20 06:55:07;;;;;;;8.90;6.30;;;;;;;20.01;51.45;99110.16;5068989;28;20188;-73
2023/04/20 06:57:34;;;;;;;6.63;6.07;;;;;;;20.15;52.36;99107.81;5070886;28;20196;-73
2023/04/20 07:00:01;;;;;;;17.43;7.47;;;;;;;20.58;54.09;99112.69;5070119;28;20273;-70
2023/04/20 07:02:28;;;;;;;6.93;5.90;;;;;;;21.31;50.57;99122.91;5069885;28;20184;-73
2023/04/20 07:05:00;;;;;;;12.33;6.80;;;;;;;21.41;49.39;99114.78;5070155;28;20642;-71
2023/04/20 07:07:29;;;;;;;10.37;6.07;;;;;;;21.62;47.92;99123.63;5070352;28;20290;-72
2023/04/20 07:09:55;;;;;;;7.47;5.57;;;;;;;21.56;46.75;99130.94;5070263;28;20188;-71
2023/04/20 07:12:22;;;;;;;9.43;6.03;;;;;;;20.82;47.39;99127.28;5070484;28;20669;-72
2023/04/20 07:14:49;;;;;;;18.10;6.10;;;;;;;20.89;48.67;99122.41;5070322;28;20253;-72
2023/04/20 07:17:15;;;;;;;6.37;5.73;;;;;;;21.03;48.47;99128.09;5068511;28;20191;-73
2023/04/20 07:19:42;;;;;;;17.57;6.70;;;;;;;20.86;49.53;99120.25;5070902;28;20245;-73
2023/04/20 07:22:09;;;;;;;13.03;5.90;;;;;;;21.22;50.22;99113.75;5070775;28;20204;-76
2023/04/20 07:24:37;;;;;;;7.00;6.50;;;;;;;21.29;47.23;99119.69;5058926;28;20633;-73
2023/04/20 07:27:04;;;;;;;16.70;6.60;;;;;;;21.35;48.48;99123.97;5050859;28;20672;-73
2023/04/20 07:29:31;;;;;;;8.13;6.13;;;;;;;21.88;46.27;99133.28;5050812;28;20284;-74
2023/04/20 07:31:57;;;;;;;6.77;5.87;;;;;;;21.90;45.67;99118.41;5070348;28;20677;-70
2023/04/20 07:34:24;;;;;;;7.10;6.37;;;;;;;21.77;45.49;99126.31;5069986;28;20639;-76
2023/04/20 07:36:51;;;;;;;6.07;5.67;;;;;;;21.47;46.52;99121.78;5070017;28;20203;-74
2023/04/20 07:39:18;;;;;;;6.80;6.30;;;;;;;21.84;46.21;99114.09;5070821;28;20215;-72
2023/04/20 07:41:46;;;;;;;7.07;6.47;;;;;;;21.34;46.19;99127.78;5069433;28;20196;-72
2023/04/20 07:44:13;;;;;;;6.77;6.27;;;;;;;21.21;46.45;99122.94;5067209;28;20216;-71
2023/04/20 07:46:40;;;;;;;43.73;8.10;;;;;;;21.29;47.50;99119.69;5067264;28;20184;-75
2023/04/20 07:49:07;;;;;;;21.80;7.47;;;;;;;21.50;46.70;99118.53;5069986;28;20192;-75
2023/04/20 07:51:34;;;;;;;16.13;6.80;;;;;;;21.24;46.75;99127.81;5070542;28;20203;-72
2023/04/20 07:54:00;;;;;;;6.70;6.30;;;;;;;21.33;47.00;99120.75;5070121;28;20200;-74
2023/04/20 07:56:27;;;;;;;6.73;6.20;;;;;;;21.88;46.68;99122.47;5070128;28;20192;-72
2023/04/20 07:58:55;;;;;;;8.40;6.33;;;;;;;22.24;44.65;99132.00;5070301;28;20665;-73
2023/04/20 08:01:24;;;;;;;8.53;6.47;;;;;;;22.13;46.66;99125.03;5070304;28;20282;-74
2023/04/20 08:03:51;;;;;;;9.30;6.73;;;;;;;22.42;44.84;99124.03;5070110;28;20218;-76
2023/04/20 08:06:18;;;;;;;7.97;7.37;;;;;;;22.28;44.72;99128.47;5069920;28;20306;-74
2023/04/20 08:08:45;;;;;;;7.60;7.10;;;;;;;21.41;45.83;99112.09;5070223;28;20642;-74
2023/04/20 08:11:12;;;;;;;10.33;7.07;;;;;;;20.27;48.77;99109.19;5070605;28;20196;-75
2023/04/20 08:13:38;;;;;;;8.13;7.33;;;;;;;19.66;50.37;99103.84;5073422;28;20210;-78
2023/04/20 08:16:07;;;;;;;7.80;6.60;;;;;;;19.65;51.33;99103.03;5071794;28;20562;-78
2023/04/20 08:18:34;;;;;;;7.30;6.60;;;;;;;20.29;51.26;99095.41;5070981;28;20200;-78
2023/04/20 08:21:00;;;;;;;12.07;7.67;;;;;;;20.13;50.29;99091.06;5074315;28;20249;-74
2023/04/20 08:23:27;;;;;;;6.70;6.23;;;;;;;20.22;50.38;99098.38;5073956;28;20227;-75
2023/04/20 08:25:54;;;;;;;10.00;7.13;;;;;;;20.21;51.07;99093.22;5073803;28;20249;-78
2023/04/20 08:28:21;;;;;;;7.77;7.27;;;;;;;20.45;50.49;99087.06;5074055;28;20195;-78
2023/04/20 08:30:48;;;;;;;7.47;6.80;;;;;;;20.72;51.39;99089.50;5073544;28;20630;-79
2023/04/20 08:33:16;;;;;;;7.70;7.20;;;;;;;20.65;49.97;99090.84;5072071;28;20199;-79
2023/04/20 08:35:43;;;;;;;7.90;7.40;;;;;;;20.73;49.63;99091.09;5073130;28;20204;-80
2023/04/20 08:38:10;;;;;;;13.43;7.60;;;;;;;21.36;50.18;99084.25;5073694;28;20672;-74
2023/04/20 08:40:37;;;;;;;8.93;7.13;;;;;;;21.76;47.86;99092.25;5073168;28;20736;-82
2023/04/20 08:43:04;;;;;;;9.23;7.17;;;;;;;21.91;47.91;99089.44;5053092;28;20192;-77
2023/04/20 08:45:31;;;;;;;7.40;6.90;;;;;;;22.17;45.57;99099.84;5052855;28;20246;-77
2023/04/20 08:47:58;;;;;;;23.93;7.67;;;;;;;22.07;44.50;99105.31;5053232;28;20287;-80
2023/04/20 08:50:27;;;;;;;46.13;10.33;;;;;;;22.04;44.15;99091.53;5053620;28;20341;-79
2023/04/20 08:52:54;;;;;;;8.77;7.10;;;;;;;22.61;44.47;99094.41;5052426;28;20236;-77
2023/04/20 08:55:21;;;;;;;10.57;7.33;;;;;;;22.88;45.13;99092.00;5052230;28;20254;-75
2023/04/20 08:57:48;;;;;;;9.03;6.97;;;;;;;22.74;43.76;99088.34;5052941;28;20192;-77
2023/04/20 09:00:16;;;;;;;8.63;7.47;;;;;;;21.87;44.42;99083.78;5053118;28;20666;-79
2023/04/20 09:02:50;;;;;;;7.47;6.73;;;;;;;21.38;45.11;99066.69;5052843;28;20673;-77
2023/04/20 09:05:25;;;;;;;12.47;8.13;;;;;;;21.64;45.32;99084.41;5067409;28;20307;-78
2023/04/20 09:07:55;;;;;;;8.03;7.53;;;;;;;21.45;46.03;99072.63;5072209;28;20180;-77
2023/04/20 09:10:24;;;;;;;8.57;7.33;;;;;;;21.73;46.60;99081.97;5072825;28;20196;-77
2023/04/20 09:12:51;;;;;;;7.77;7.23;;;;;;;21.48;46.25;99069.34;5072813;28;20266;-78
2023/04/20 09:15:25;;;;;;;9.83;7.03;;;;;;;21.62;45.81;99080.38;5071012;28;20624;-77
2023/04/20 09:17:52;;;;;;;32.10;8.13;;;;;;;21.70;45.20;99079.78;5072880;28;20202;-75
2023/04/20 09:20:28;;;;;;;25.17;8.17;;;;;;;21.75;43.84;99088.72;5073020;28;20188;-76
2023/04/20 09:22:56;;;;;;;33.50;7.93;;;;;;;21.65;44.33;99090.63;5073096;28;20207;-79
2023/04/20 09:25:26;;;;;;;7.57;7.03;;;;;;;21.55;44.36;99080.66;5071566;28;20208;-79
2023/04/20 09:27:57;;;;;;;8.47;6.97;;;;;;;22.00;44.02;99079.66;5072148;28;20261;-79
2023/04/20 09:30:24;;;;;;;27.00;8.57;;;;;;;21.69;44.26;99076.31;5072196;28;20255;-80
2023/04/20 09:33:01;;;;;;;9.13;7.30;;;;;;;21.41;45.12;99068.03;5072192;28;20196;-73
2023/04/20 09:35:28;;;;;;;7.90;7.10;;;;;;;21.31;44.64;99079.66;5072457;28;20195;-73
2023/04/20 09:37:56;;;;;;;7.43;6.77;;;;;;;21.51;44.67;99076.91;5072297;28;20746;-69
2023/04/20 09:40:24;;;;;;;8.00;6.37;;;;;;;21.72;42.83;99081.16;5072321;28;20191;-72
2023/04/20 09:42:53;;;;;;;7.87;6.30;;;;;;;21.73;42.83;99069.28;5069793;28;20265;-72
2023/04/20 09:45:20;;;;;;;7.43;6.40;;;;;;;22.04;43.00;99076.13;5071215;28;20223;-74
2023/04/20 09:47:48;;;;;;;9.50;6.20;;;;;;;22.28;41.98;99078.94;5071831;28;20199;-75
2023/04/20 09:50:16;;;;;;;7.33;6.63;;;;;;;21.90;43.01;99077.84;5051486;28;20192;-74
2023/04/20 09:52:47;;;;;;;6.47;5.87;;;;;;;21.88;44.05;99063.78;5064546;28;20207;-78
2023/04/20 09:55:16;;;;;;;6.30;5.90;;;;;;;22.08;44.59;99058.25;5072095;28;20196;-75
2023/04/20 09:57:44;;;;;;;9.13;7.37;;;;;;;22.26;42.44;99071.09;5072073;28;20253;-66
2023/04/20 10:00:11;;;;;;;10.07;6.83;;;;;;;22.75;42.51;99062.88;5072049;28;20187;-67
2023/04/20 10:02:38;;;;;;;12.00;6.40;;;;;;;22.96;40.57;99051.56;5072157;28;20730;-68
2023/04/20 10:05:06;;;;;;;7.00;6.50;;;;;;;23.11;40.87;99053.31;5071341;28;20222;-70
2023/04/20 10:07:34;;;;;;;8.20;6.57;;;;;;;23.17;39.69;99050.25;5072013;28;20671;-68
2023/04/20 10:10:08;;;;;;;6.67;5.70;;;;;;;23.36;38.42;99061.97;5071558;28;20673;-68
2023/04/20 10:12:47;;;;;;;6.50;6.10;;;;;;;22.91;39.13;99053.53;5072222;28;20214;-68
2023/04/20 10:15:14;;;;;;;7.40;6.77;;;;;;;22.20;40.16;99045.16;5062461;28;20299;-69
2023/04/20 10:17:41;;;;;;;13.70;7.23;;;;;;;22.00;42.06;99031.78;5052532;28;20633;-68
2023/04/20 10:20:19;;;;;;;21.77;6.77;;;;;;;21.76;42.28;99030.84;5071808;28;20214;-68
2023/04/20 10:22:45;;;;;;;6.70;6.10;;;;;;;21.40;44.20;99026.66;5072265;28;20215;-68
2023/04/20 10:25:17;;;;;;;7.93;7.13;;;;;;;21.62;43.71;99021.72;5070388;28;20984;-64
2023/04/20 10:27:57;;;;;;;14.97;6.70;;;;;;;22.07;44.24;99028.75;5071836;28;20663;-67
2023/04/20 10:30:25;;;;;;;28.57;7.77;;;;;;;22.17;44.15;99029.50;5072067;28;20249;-70
2023/04/20 10:33:03;;;;;;;20.07;7.30;;;;;;;21.81;44.15;99030.81;5071385;28;20196;-69
2023/04/20 10:35:40;;;;;;;8.70;6.37;;;;;;;21.80;42.26;99023.78;5070773;28;20612;-69
2023/04/20 10:38:07;;;;;;;8.53;6.13;;;;;;;21.69;42.01;99027.63;5071797;28;20296;-71
2023/04/20 10:40:34;;;;;;;8.93;6.60;;;;;;;21.99;42.11;99032.88;5071879;28;20553;-71
2023/04/20 10:43:02;;;;;;;9.23;6.30;;;;;;;21.91;41.64;99040.75;5051824;28;20185;-71
2023/04/20 10:45:39;;;;;;;11.17;6.87;;;;;;;21.53;42.45;99026.09;5059522;28;20216;-71
2023/04/20 10:48:09;;;;;;;9.33;7.07;;;;;;;21.70;43.23;99029.28;5070844;28;20191;-66
2023/04/20 10:50:36;;;;;;;6.97;6.23;;;;;;;21.75;42.73;99029.25;5051101;28;20631;-67
2023/04/20 10:53:03;;;;;;;6.30;5.93;;;;;;;21.85;40.21;99026.47;5051320;28;20666;-69
2023/04/20 10:55:30;;;;;;;7.00;5.80;;;;;;;21.90;40.73;99029.16;5050707;28;20188;-70
2023/04/20 10:57:58;;;;;;;19.83;7.17;;;;;;;21.96;40.92;99038.06;5050908;28;20196;-73
2023/04/20 11:00:29;;;;;;;5.97;5.50;;;;;;;22.18;39.45;99033.84;5051414;28;20200;-71
2023/04/20 11:02:57;;;;;;;6.27;5.67;;;;;;;22.18;39.78;99035.72;5052857;28;20281;-69
2023/04/20 11:05:25;;;;;;;8.70;5.80;;;;;;;22.36;39.33;99026.91;5070931;28;20216;-70
2023/04/20 11:07:53;;;;;;;9.27;5.80;;;;;;;22.55;38.69;99036.81;5070994;28;20192;-69
2023/04/20 11:10:20;;;;;;;9.83;5.83;;;;;;;22.26;38.21;99044.03;5071214;28;20274;-67
2023/04/20 11:12:47;;;;;;;32.30;6.97;;;;;;;22.19;41.93;99048.16;5071174;28;20192;-72
2023/04/20 11:15:15;;;;;;;11.03;7.60;;;;;;;22.20;53.37;99038.94;5070721;28;20200;-76
2023/04/20 11:17:43;;;;;;;13.47;7.67;;;;;;;21.73;54.22;99031.44;5071551;28;20191;-74
2023/04/20 11:20:13;;;;;;;6.47;5.87;;;;;;;20.63;54.08;99046.03;5071078;28;20211;-77
2023/04/20 11:22:41;;;;;;;8.13;5.47;;;;;;;20.08;54.75;99042.50;5070729;28;20545;-71
2023/04/20 11:25:10;;;;;;;14.20;6.53;;;;;;;20.41;61.33;99032.03;5070491;28;20211;-80
2023/04/20 11:27:38;;;;;;;7.20;6.57;;;;;;;20.74;60.58;99019.84;5071075;28;20199;-73